Résultats

Cross Marseille Mediterranée:C03: CaM & JuF. Édition 2013.

1 Km
15/12/2013 à 00:00:00 - ()
61 arrivant(e)s.





Place▲ Temps Dossard Nom Prenom Categ #Categ Sexe #Sexe Club Vit Moy Diplôme Partager
1 00:13:42 642 BARTHE ETIENNE CAM 1 M 1 EP MANOSQUE ATHLETISME 18.66
2 00:13:58 704 DJELLALI KILLIAN CAM 2 M 2 MARTIGUES SPORT ATHLE 18.30
3 00:14:08 485 BRIN-VERVAT NOE CAM 3 M 3 BCI 9.9
4 00:14:16 621 PHILIPPE MARTIN CAM 4 M 4 EAC EMBRUN 17.92
5 00:14:32 300 HAMADOUCHE MOHAMED CAM 5 M 5 ALES CEVENNES ATHLETISME 17.59
6 00:14:38 1218 HOUVIN UGO CAM 6 M 6 SCO STE-MARGUERITE MARSEILLE 17.47
7 00:14:48 636 WATWAT MUSTAPHA CAM 7 M 7 ENA 17.27
8 00:14:52 701 CHEMLI NYL CAM 8 M 8 MARTIGUES SPORT ATHLE 17.19
9 00:14:56 230 MAUER BENJAMIN CAM 9 M 9 AIX ATHLE PROVENCE 9.9
10 00:14:58 1681 GRAND JEAN-BAPTISTE CAM 10 M 10 TARN SUD ATHLETISME 9.9
11 00:15:00 214 GREGORIADES YANNIS CAM 11 M 11 AIX ATHLE PROVENCE 9.9
12 00:15:02 483 PETIT LINO CAM 12 M 12 AVAG 17.00
13 00:15:14 321 SIVILLA MARVIN CAM 13 M 13 ALES CEVENNES ATHLETISME 16.78
14 00:15:17 184 ALLARD LENI CAM 14 M 14 AIX ATHLE PROVENCE 16.72
15 00:15:22 251 BONNART JOSSELYN CAM 15 M 15 AJS LA GARDE 16.63
16 00:15:25 1518 MARTINS REMY BEM 1 M 16 SMUC 16.58
17 00:15:29 355 GARCIA-ROTA LUCAS CAM 16 M 17 AMICALE DES PENNES MIRABEAU 16.51
18 00:15:35 314 QUET JEREMY CAM 17 M 18 ALES CEVENNES ATHLETISME 16.40
19 00:15:41 742 FASQUEL THOMAS CAM 18 M 19 MJC PLAN DE CUQUES 16.30
20 00:15:43 1451 DREMEAUX QUENTIN MIM 1 M 20 SMUC 16.26
21 00:15:46 711 RIGNAULT MELANIE JUF 1 F 1 MARTIGUES SPORT ATHLE 16.21
22 00:15:47 405 BOULLE NOLWENN JUF 2 F 2 AMSL FREJUS-SAINT RAPHAEL 16.19
23 00:15:48 703 DELALANDE SERAPHIN CAM 19 M 21 MARTIGUES SPORT ATHLE 16.18
24 00:16:05 231 MEKIDICHE JENNA JUF 3 F 3 AIX ATHLE PROVENCE 15.89
25 00:16:09 674 TOURTET JULIE JUF 4 F 4 GHAA 15.83
26 00:16:13 504 ARNAUD LOUIS CAM 20 M 22 CASA 15.76
27 00:16:21 1754 ENDEL SIMON CAM 21 M 23 UAVH AUBAGNE 15.63
28 00:16:26 1348 SAINDOU MOUKOUTOIFI CAM 22 M 24 SCO STE-MARGUERITE MARSEILLE 15.55
29 00:16:28 1052 ALIX GUILLAUME CAM 23 M 25 SCO STE-MARGUERITE MARSEILLE 15.52
30 00:16:35 275 BENKHALED WALID CAM 24 M 26 ALES CEVENNES ATHLETISME 15.41
31 00:16:35 290 ESSAIDI KAMAL CAM 25 M 27 ALES CEVENNES ATHLETISME 15.41
32 00:16:40 472 BENZ ANTONIN CAM 26 M 28 AVAG 15.34
33 00:16:43 493 LAVILLE ROMAIN CAM 27 M 29 BERRE SPORT ATHLETISME 15.29
34 00:16:49 712 SATTA FABIEN CAM 28 M 30 MARTIGUES SPORT ATHLE 15.20
35 00:16:56 912 HAREK MERIEM JUF 5 F 5 OM ATHLETISME 9.9
36 00:17:00 1026 GENTILE ENZO CAM 29 M 31 ROGNAC ATHLETIC CLUB 9.9
37 00:17:04 223 LEROY CAMILLE CAM 30 M 32 AIX ATHLE PROVENCE 14.98
38 00:17:08 1647 KELEMENIS AXEL-VINCENT CAM 31 M 33 STADIUM CLUB MARIGNANAIS 14.92
39 00:17:26 1693 PARIS JULIA JUF 6 F 6 TEC TOULON ETUDIANT 14.66
40 00:17:34 502 DUBOIS LUCAS CAM 32 M 34 CAP GARONNE 14.55
41 00:17:37 308 MASCLEF CORENTIN CAM 33 M 35 ALES CEVENNES ATHLETISME 14.51
42 00:17:44 388 SALINS MAXIME CAM 34 M 36 AMICALE DES PENNES MIRABEAU 14.41
43 00:18:20 1012 MORABITO LEO CAM 35 M 37 OS HYERES 13.94
44 00:18:22 147 AUBERY CLAIRE JUF 7 F 7 ACP MARSEILLE 13.92
45 00:18:29 1058 ARBAOUI FARES CAM 36 M 38 SCO STE-MARGUERITE MARSEILLE 13.83
46 00:18:39 185 ASSAL ELSA JUF 8 F 8 AIX ATHLE PROVENCE 13.71
47 00:18:41 1305 PENICA HELOISE JUF 9 F 9 SCO STE-MARGUERITE MARSEILLE 13.68
48 00:18:45 495 MOUBAREK SARAH JUF 10 F 10 BERRE SPORT ATHLETISME 13.63
49 00:18:56 1688 GIOVANNELLI CHRISTINE JUF 11 F 11 TEC TOULON ETUDIANT 13.50
50 00:19:19 175 POURNARAS NICOLAS CAM 37 M 39 ACP MARSEILLE 13.23
51 00:20:38 207 DUVAL MARGOT JUF 12 F 12 AIX ATHLE PROVENCE 9.9
52 00:20:42 594 DAUMAS BRICE CAM 38 M 40 CSP ATHLE SUD LUBERON 9.9
53 00:21:09 1921 DUBARRY OCEANE- JUF 13 F 13 USPEG MARSEILLE 9.9
54 00:21:11 1957 MAZZIOTTI JORDAN CAM 39 M 41 USPEG MARSEILLE 9.9
55 00:21:15 458 NICOLAS MARINE JUF 14 F 14 ATHLETIC CLUB SALONAIS 9.9
56 00:21:21 44 LAGLER ANTOINE CAM 40 M 42 9.9
57 00:21:29 11 CHERON MARION JUF 15 F 15 9.9
58 00:21:39 337 BROSSA CLARENCE CAM 41 M 43 AMICALE DES PENNES MIRABEAU 9.9
59 00:21:56 394 TAGLIANTE EMILIE JUF 16 F 16 AMICALE DES PENNES MIRABEAU 9.9
60 00:23:25 487 BOFFI PIERRE-YVES CAM 42 M 44 BERRE SPORT ATHLETISME 9.9
61 00:23:36 700 CAPITAINE LOUISE JUF 17 F 17 MARTIGUES SPORT ATHLE 9.9